Date,TemperatureHighF,TemperatureAvgF,TemperatureLowF,DewpointHighF,DewpointAvgF,DewpointLowF,HumidityHigh,HumidityAvg,HumidityLow,PressureMaxIn,PressureMinIn,WindSpeedMaxMPH,WindSpeedAvgMPH,GustSpeedMaxMPH,PrecipitationSumIn
2013-1-1,30.0,25.5,17.4,27.2,20.9,12.3,89,83,77,29.40,29.27,5,0,5,0.00
2013-1-2,25.3,15.3,8.1,12.3,7.0,2.5,81,70,56,29.48,29.38,6,0,6,0.00
2013-1-3,29.5,22.4,14.2,23.5,14.9,5.0,81,73,62,29.52,29.39,15,2,15,0.00
2013-1-4,27.7,21.5,14.5,20.1,15.1,9.5,82,76,68,29.55,29.48,12,2,12,0.00
2013-1-5,36.7,26.7,17.8,28.8,21.3,12.6,85,80,70,29.54,29.31,57,2,57,0.00
2013-1-6,34.5,28.8,24.4,30.2,23.9,19.1,85,82,78,29.58,29.22,22,4,22,0.00
2013-1-7,36.7,26.3,17.4,27.5,20.6,12.5,85,79,69,29.66,29.43,11,1,11,0.00
2013-1-8,41.9,30.3,23.2,32.3,23.9,18.3,83,77,68,29.49,29.41,9,1,9,0.00
2013-1-9,43.9,39.6,31.6,35.9,33.1,24.3,85,78,70,29.74,29.36,12,2,12,0.00
2013-1-10,39.4,34.9,28.2,36.6,30.7,22.8,91,85,71,29.75,29.26,59,2,59,0.00
2013-1-11,56.3,46.8,39.4,51.8,44.2,37.0,94,91,78,29.26,29.00,15,4,15,0.00
2013-1-12,59.5,56.0,52.0,52.7,51.1,49.3,91,84,78,29.21,28.96,2,0,2,0.00
2013-1-13,51.8,38.2,21.4,49.6,35.3,17.2,93,89,84,29.44,28.95,17,2,17,0.00
2013-1-14,21.4,18.8,16.0,17.2,14.3,11.2,84,82,81,29.65,29.44,0,0,0,0.00
2013-1-15,21.9,19.5,18.5,17.5,15.2,14.3,84,83,82,29.64,29.60,0,0,0,0.00
2013-1-16,31.3,25.3,23.4,22.3,20.6,19.5,85,82,69,29.29,29.22,0,0,0,0.00
2013-1-17,31.8,25.5,21.7,20.3,16.5,14.3,74,68,62,29.64,29.49,13,3,13,0.00
2013-1-18,39.0,23.4,20.5,24.5,16.0,14.3,79,74,56,29.69,29.43,17,2,17,0.00
2013-1-19,48.9,44.9,42.1,35.1,34.1,32.5,74,66,57,29.21,29.07,11,5,11,0.00
2013-1-20,42.4,27.9,19.2,34.4,16.8,8.4,72,63,52,29.50,29.10,16,7,16,0.00
2013-1-21,15.6,11.8,8.1,9.0,0.5,-3.8,76,61,52,29.49,29.35,16,8,16,0.00
2013-1-22,8.1,4.8,3.7,-1.9,-2.8,-3.8,73,71,58,29.60,29.48,11,4,11,0.00
2013-1-23,21.4,19.1,12.4,12.7,8.5,1.7,71,63,53,29.54,29.33,16,2,16,0.00
2013-1-24,29.1,18.9,9.5,14.7,9.3,3.4,82,67,49,29.83,29.39,14,3,14,0.00
2013-1-25,29.1,22.8,18.5,19.7,15.0,9.8,79,72,65,29.64,29.25,12,2,13,0.00
2013-1-26,29.8,22.6,16.9,19.1,14.5,9.9,79,71,60,29.66,29.31,6,0,6,0.00
2013-1-27,34.3,26.7,18.1,31.4,20.9,11.9,89,79,72,29.65,29.28,12,2,12,0.00
2013-1-28,49.3,44.5,34.3,47.0,42.4,31.4,93,92,89,29.31,29.18,19,2,19,0.00
2013-1-29,58.6,53.7,46.6,55.4,51.5,44.7,95,92,88,29.21,28.63,24,4,24,0.00
2013-1-30,59.4,44.4,26.4,56.3,41.5,21.9,94,89,82,28.81,28.48,24,5,24,0.00
2013-1-31,26.4,20.0,9.0,21.9,13.6,2.1,84,76,67,29.33,28.81,25,8,25,0.00
2013-2-1,16.3,10.1,3.6,9.3,2.4,-3.0,77,71,62,29.62,29.33,18,4,18,0.00
2013-2-2,26.8,22.0,16.3,21.9,17.0,9.4,86,81,73,29.47,29.21,11,2,11,0.00
2013-2-3,23.5,17.3,11.5,18.0,11.7,6.3,84,79,72,29.31,29.18,13,1,13,0.00
2013-2-4,38.5,26.4,19.4,27.4,19.9,13.6,82,77,63,29.30,29.03,14,1,14,0.00
2013-2-5,34.3,28.5,20.3,29.0,23.2,16.2,86,80,71,29.27,29.05,59,1,59,0.00
2013-2-6,40.1,32.5,28.2,27.7,24.5,21.0,84,72,59,29.49,29.27,8,1,8,0.00
2013-2-7,50.2,38.4,30.0,39.5,32.1,25.5,90,78,64,29.41,29.03,17,1,17,0.00
2013-2-8,38.8,33.0,28.2,36.1,27.4,21.3,90,80,68,29.59,29.05,17,4,17,0.00
2013-2-9,39.4,29.7,22.8,28.9,22.9,18.1,84,76,65,29.65,29.45,10,1,10,0.00
2013-2-10,35.4,33.3,31.8,30.1,27.4,24.2,81,79,73,29.39,29.23,4,0,4,0.00
2013-2-11,46.8,35.4,30.2,37.9,26.9,23.9,78,71,64,29.26,28.91,24,8,24,0.00
2013-2-12,38.1,31.6,27.7,29.1,24.9,22.2,83,76,68,29.36,29.18,14,2,14,0.00
2013-2-13,44.2,33.2,26.8,31.4,25.9,21.8,84,75,56,29.18,28.99,10,0,10,0.00
2013-2-14,46.6,37.1,32.2,37.4,30.9,27.7,88,79,67,29.21,29.00,21,4,21,0.00
2013-2-15,33.6,30.2,24.1,27.7,23.8,16.8,84,77,61,29.40,29.20,13,1,13,0.00
2013-2-16,24.6,21.7,17.4,18.0,12.4,6.7,80,68,54,29.37,29.31,15,2,15,0.00
2013-2-17,32.4,21.9,11.8,17.0,11.7,5.4,78,66,48,29.47,29.36,10,1,10,0.00
2013-2-18,54.0,39.1,25.3,41.9,29.1,15.1,86,67,57,29.36,28.79,100,8,100,0.00
2013-2-19,44.2,23.6,18.3,40.3,17.6,10.7,88,78,70,29.35,28.77,26,9,26,0.00
2013-2-20,23.2,17.6,10.0,14.0,9.9,3.6,80,72,65,29.55,29.35,13,2,13,0.00
2013-2-21,30.4,25.5,20.3,21.0,18.5,13.9,84,75,67,29.58,29.27,21,5,21,0.00
2013-2-22,36.9,30.9,24.6,33.1,27.5,20.5,90,87,82,29.28,29.09,22,3,22,0.00
2013-2-23,32.7,27.9,23.5,25.6,21.8,19.4,85,78,67,29.23,29.16,12,3,12,0.00
2013-2-24,36.7,27.8,21.0,24.9,20.6,16.6,84,75,61,29.39,29.21,8,1,8,0.00
2013-2-25,42.4,31.1,24.6,30.9,24.6,19.9,84,77,62,29.41,29.17,16,3,16,0.00
2013-2-26,34.2,32.8,31.6,31.2,28.2,25.4,89,83,75,29.17,28.66,18,4,18,0.00
2013-2-27,34.7,32.9,30.7,32.5,30.6,27.8,93,91,88,28.90,28.70,14,4,14,0.00
2013-2-28,37.9,32.2,31.1,33.2,29.6,28.1,92,90,83,29.21,28.89,13,3,13,0.00
2013-3-1,35.2,32.0,28.9,29.9,26.8,22.6,91,81,76,29.33,29.21,7,1,7,0.00
2013-3-2,32.4,28.4,25.7,22.7,20.3,18.0,81,72,62,29.35,29.30,12,2,12,0.00
2013-3-3,33.6,27.9,24.4,23.5,20.2,17.1,82,73,57,29.34,29.28,12,1,12,0.00
2013-3-4,41.5,30.4,20.8,28.4,22.4,14.9,84,72,58,29.37,29.21,14,2,14,0.00
2013-3-5,33.6,31.3,27.1,30.1,27.9,24.3,90,87,84,29.24,28.92,17,4,17,0.00
2013-3-6,36.0,30.3,26.8,29.0,26.0,22.8,91,84,74,29.50,29.01,23,4,23,0.00
2013-3-7,39.4,32.9,28.9,31.0,26.9,22.7,88,79,68,29.63,29.49,6,0,6,0.00
2013-3-8,46.0,33.1,22.6,31.7,24.5,18.0,83,71,54,29.72,29.60,7,1,7,0.00
2013-3-9,43.9,34.9,30.2,36.9,28.9,23.7,82,79,74,29.61,29.18,10,2,10,0.00
2013-3-10,63.9,52.0,43.0,48.9,41.1,35.3,76,67,53,29.18,28.97,17,2,17,0.00
2013-3-11,52.5,44.2,33.1,46.5,39.5,29.6,90,84,67,29.07,28.84,21,4,21,0.00
2013-3-12,40.1,33.6,30.6,29.7,27.0,23.4,88,77,59,29.24,29.07,22,6,22,0.00
2013-3-13,33.3,28.8,25.5,27.0,20.0,17.0,83,70,56,29.54,29.23,16,4,16,0.00
2013-3-14,41.4,31.6,22.6,28.0,21.0,16.1,81,66,45,29.57,29.37,10,1,10,0.00
2013-3-15,49.3,38.6,30.0,39.8,32.6,25.8,86,79,64,29.38,28.99,9,0,9,0.00
2013-3-16,42.6,38.1,31.8,38.1,33.9,26.7,92,85,79,29.31,28.87,16,2,16,0.00
2013-3-17,41.9,33.4,29.8,29.1,25.3,23.3,81,72,60,29.41,29.24,16,5,16,0.00
2013-3-18,37.8,34.1,30.9,34.5,30.0,24.1,89,85,75,29.25,28.89,21,8,21,0.00
2013-3-19,39.0,29.8,23.4,24.1,17.2,13.1,75,60,43,29.32,29.05,30,10,30,0.00
2013-3-20,31.3,26.4,21.9,18.2,13.9,8.3,72,59,46,29.32,29.23,21,5,21,0.00
2013-3-21,36.0,25.6,16.2,17.3,13.3,8.7,76,61,42,29.27,29.21,17,2,17,0.00
2013-3-22,45.3,32.1,20.8,22.2,17.9,13.7,77,57,39,29.29,29.22,9,1,9,0.00
2013-3-23,51.4,37.7,27.3,29.2,22.7,17.2,67,55,39,29.33,29.17,6,1,6,0.00
2013-3-24,36.7,32.2,28.9,27.7,25.1,23.1,86,75,64,29.19,28.73,24,7,24,0.00
2013-3-25,37.9,31.7,27.3,30.7,26.7,24.3,90,82,69,29.23,28.77,11,4,11,0.00
2013-3-26,40.8,34.2,30.7,31.6,28.1,26.1,88,79,60,29.47,29.22,11,2,11,0.00
2013-3-27,43.3,34.5,26.1,29.0,24.8,21.3,83,68,50,29.54,29.46,17,2,17,0.00
2013-3-28,48.6,36.3,27.1,29.6,25.2,21.6,82,65,47,29.59,29.52,7,1,7,0.00
2013-3-29,51.3,35.6,30.9,35.0,27.1,24.3,80,71,53,29.55,29.47,4,0,4,0.00
2013-3-30,57.0,41.7,31.6,38.0,30.5,24.3,76,65,45,29.47,29.16,10,0,10,0.00
2013-3-31,59.9,49.4,43.9,43.0,39.2,33.4,90,69,45,29.16,28.96,18,3,18,0.00
2013-4-1,45.1,38.1,31.8,33.6,23.7,17.0,76,57,37,29.38,29.05,14,1,14,0.00
2013-4-2,46.8,35.0,25.2,22.0,18.4,15.2,72,53,32,29.52,29.38,14,2,14,0.00
2013-4-3,57.4,38.6,25.5,26.6,19.7,14.7,68,48,29,29.67,29.51,9,1,9,0.00
2013-4-4,61.3,44.5,30.6,30.1,23.6,18.5,66,46,26,29.57,29.22,9,1,9,0.00
2013-4-5,60.1,46.0,36.3,36.9,28.5,23.3,69,52,29,29.39,29.21,9,1,9,7.14
2013-4-6,68.7,55.4,39.9,40.2,33.7,23.8,60,45,35,29.39,29.05,13,5,13,0.00
2013-4-7,70.0,61.1,53.4,45.8,43.3,39.4,70,53,37,29.17,28.97,19,5,19,0.00
2013-4-8,73.4,68.1,58.1,57.0,55.1,50.5,78,64,57,29.08,29.03,16,7,16,0.00
2013-4-9,80.6,74.0,59.2,61.4,58.1,54.0,83,59,45,29.20,29.08,22,6,22,0.00
2013-4-10,76.3,64.3,53.2,66.0,57.2,49.4,89,78,68,29.12,29.01,13,5,13,0.00
2013-4-11,62.4,57.1,53.2,58.9,54.1,50.6,91,89,88,29.00,28.79,14,2,14,0.00
2013-4-12,49.8,42.0,38.5,47.2,35.8,31.9,91,79,69,29.09,28.82,20,8,20,0.00
2013-4-19,35.4,35.4,35.4,31.9,31.9,31.9,87,87,87,29.16,29.15,2,2,2,0.00
2013-4-20,38.5,35.9,33.1,30.0,29.6,29.0,88,78,69,29.44,29.18,11,5,11,0.00
2013-4-21,51.6,51.6,51.6,32.0,32.0,32.0,47,47,47,29.62,29.62,3,3,3,0.00
2013-4-23,58.8,57.0,48.7,54.0,53.2,44.0,91,87,82,29.18,29.03,11,1,11,0.00
2013-4-24,48.2,41.1,37.0,44.2,36.8,31.9,90,85,61,29.44,29.04,10,3,10,0.00
2013-4-25,52.3,42.4,36.7,34.8,31.8,29.8,80,68,46,29.54,29.40,17,3,17,0.00
2013-4-26,69.1,60.8,50.5,45.0,42.0,38.3,64,51,41,29.60,29.55,6,0,6,0.00
2013-4-27,70.7,55.6,42.6,49.2,42.4,33.4,82,62,42,29.57,29.25,57,2,57,0.00
2013-4-28,59.7,55.5,52.9,55.6,51.8,48.7,91,87,82,29.25,29.06,6,0,6,0.00
2013-4-30,83.8,78.8,66.2,64.4,61.8,55.3,68,57,52,29.24,29.16,10,6,10,0.00
2013-5-1,85.8,79.9,66.2,62.0,59.8,55.3,68,52,45,29.36,29.24,3,1,3,0.00
2013-5-2,83.8,79.5,72.9,61.4,58.3,55.3,55,49,46,29.35,29.28,59,8,59,0.00
2013-5-3,73.2,67.8,61.5,58.0,54.3,49.4,76,63,54,29.24,29.14,12,5,12,0.00
2013-6-13,78.6,71.6,62.4,64.2,58.2,52.9,91,64,50,29.21,28.92,10,2,10,6.38
2013-6-14,89.4,69.2,57.0,64.1,57.4,51.9,85,68,41,29.32,29.18,6,0,6,0.06
2013-6-15,78.6,74.9,69.1,67.0,64.3,61.9,78,70,58,29.26,29.15,5,0,5,0.00
2013-6-16,81.7,75.2,68.7,68.5,65.7,61.6,82,73,63,29.19,29.14,13,2,13,2.47
2013-6-17,86.9,73.8,67.8,70.3,65.8,63.6,92,77,46,29.19,29.12,3,0,3,0.00
2013-6-18,89.8,77.0,66.6,67.0,63.6,57.8,86,65,43,29.26,29.12,10,2,10,0.00
2013-6-19,90.7,74.0,61.2,61.9,57.6,53.2,78,58,37,29.37,29.26,8,1,8,0.00
2013-6-20,89.8,76.4,64.6,66.9,61.0,55.1,74,60,43,29.43,29.35,7,0,7,0.00
2013-6-21,92.5,79.1,66.9,67.1,62.7,57.6,73,59,40,29.44,29.23,11,1,11,0.00
2013-6-22,89.4,78.1,72.0,74.1,67.9,63.4,80,71,59,29.37,29.31,7,1,7,0.00
2013-6-23,76.3,73.4,71.2,68.4,66.7,65.4,83,80,76,29.32,29.27,6,0,6,0.00
2013-6-24,88.3,77.9,69.4,72.8,68.4,65.4,87,74,58,29.36,29.23,14,1,14,0.00
2013-6-25,89.4,79.1,69.6,74.3,69.0,62.3,86,72,57,29.27,29.10,14,1,14,0.00
2013-6-26,85.6,78.9,72.0,74.2,69.7,65.7,85,74,62,29.17,28.98,12,1,12,0.00
2013-6-27,86.5,76.7,69.6,73.6,69.2,65.9,93,79,62,29.05,28.93,8,1,8,0.00
2013-6-28,86.7,75.0,67.8,67.8,64.1,60.5,83,70,49,28.95,28.84,14,1,14,0.00
2013-6-29,71.2,67.1,64.9,65.8,62.3,60.5,89,85,78,28.94,28.83,4,0,4,0.00
2013-6-30,79.9,69.0,62.6,64.9,62.0,59.2,90,79,58,29.15,28.92,16,3,16,0.00
2013-7-1,78.1,69.8,64.6,64.5,60.9,56.8,82,74,62,29.23,29.12,16,4,16,0.00
2013-7-2,77.5,67.4,61.0,67.9,61.4,56.1,88,81,72,29.26,29.20,11,2,11,0.28
2013-7-3,82.2,71.6,64.4,67.1,64.0,61.3,91,78,57,29.34,29.23,19,1,19,0.00
2013-7-4,82.2,73.1,63.5,67.0,63.4,58.9,88,73,55,29.39,29.31,6,0,6,0.00
2013-7-5,87.4,75.6,66.6,70.3,66.3,62.2,88,74,55,29.37,29.29,6,0,6,0.00
2013-7-6,78.6,72.9,69.8,69.6,66.3,64.0,86,80,71,29.35,29.26,6,0,6,0.00
2013-7-7,84.4,74.6,65.8,72.0,66.6,61.5,89,77,59,29.34,29.25,6,0,6,0.00
2013-7-8,87.1,78.0,70.5,74.8,69.9,65.1,85,77,65,29.34,29.24,9,1,9,0.00
2013-7-9,88.7,80.7,75.0,75.9,72.3,69.6,83,76,64,29.29,29.18,23,1,23,0.00
2013-7-10,83.8,77.2,69.4,76.6,70.5,61.2,89,80,71,29.26,29.07,16,1,16,0.00
2013-7-11,88.7,72.3,61.3,63.2,59.2,55.5,81,65,41,29.32,29.22,10,1,10,0.00
2013-7-12,89.1,73.6,60.4,63.1,58.8,53.1,79,62,40,29.38,29.30,12,1,12,0.00
2013-7-13,90.7,75.9,63.3,68.9,63.3,56.3,80,66,48,29.39,29.34,9,1,9,0.00
2013-7-14,94.1,80.7,67.6,75.2,69.4,61.7,83,70,54,29.46,29.38,8,1,8,0.00
2013-7-15,97.7,83.5,73.2,76.0,72.1,68.3,85,70,49,29.55,29.45,8,1,8,0.00
2013-7-16,93.7,82.2,72.1,76.1,71.7,66.0,83,71,53,29.60,29.52,5,0,5,0.00
2013-7-17,95.4,83.3,72.3,75.0,71.5,67.2,85,69,51,29.60,29.45,4,0,4,0.00
2013-7-18,96.8,84.0,73.2,75.8,72.1,67.8,85,69,50,29.47,29.27,6,0,6,0.00
2013-7-19,91.6,83.3,75.0,75.7,72.6,68.9,84,71,59,29.29,29.10,11,1,11,0.00
2013-7-20,81.7,77.1,72.0,72.9,70.4,67.2,87,80,73,29.18,29.05,8,1,8,0.00
2013-7-21,91.0,79.8,69.3,74.6,70.5,66.2,91,75,55,29.23,29.12,7,0,7,0.00
2013-7-22,90.3,77.9,69.6,72.5,68.6,65.2,87,74,55,29.15,29.03,5,0,5,0.00
2013-7-23,85.1,75.9,63.1,71.4,66.1,53.8,87,73,58,29.16,28.96,12,1,12,0.00
2013-7-24,85.6,68.0,56.1,59.5,54.8,50.0,82,64,40,29.28,29.14,11,1,11,0.00
2013-7-25,87.6,70.0,57.0,60.5,56.0,50.5,81,63,39,29.36,29.27,8,0,8,0.00
2013-7-26,83.1,69.7,58.3,63.3,57.8,51.1,80,67,49,29.35,29.17,6,1,6,0.00
2013-7-27,75.9,69.9,61.7,63.8,58.6,50.1,86,68,52,29.18,29.08,10,1,10,0.00
2013-7-28,70.9,62.5,52.5,53.7,49.9,45.9,79,64,52,29.28,29.15,14,1,14,0.00
2013-7-29,77.9,66.3,54.0,58.7,53.9,47.6,81,65,51,29.42,29.27,7,0,7,0.00
2013-7-30,79.0,68.1,57.6,63.7,58.9,50.7,84,73,55,29.46,29.33,8,0,8,0.00
2013-7-31,75.4,68.8,64.9,69.2,64.6,61.2,90,87,81,29.35,29.18,4,0,4,0.00
2013-8-1,81.5,71.0,63.7,67.0,61.4,56.3,92,74,47,29.25,29.18,11,1,11,0.00
2013-8-2,81.7,70.3,59.5,67.5,60.9,52.7,83,72,58,29.24,29.13,11,1,11,0.00
2013-8-3,83.3,72.4,64.6,68.3,62.9,52.9,91,73,55,29.34,29.18,8,0,8,0.00
2013-8-4,82.0,69.2,56.8,60.9,56.3,50.5,82,65,46,29.42,29.32,7,0,7,0.00
2013-8-5,83.3,69.3,62.6,64.2,59.7,56.5,84,73,49,29.36,29.18,7,0,7,0.00
2013-8-6,85.3,71.9,64.2,71.9,64.8,58.9,85,79,64,29.20,29.11,6,0,6,0.00
2013-8-7,84.6,76.5,69.4,73.6,69.9,65.1,90,80,69,29.15,29.08,8,0,8,0.00
2013-8-8,76.1,72.3,68.7,71.5,67.7,64.3,90,86,81,29.20,29.13,6,0,6,0.00
2013-8-9,83.3,74.5,67.1,69.8,65.7,62.8,90,75,54,29.27,29.16,3,0,3,0.00
2013-8-10,85.3,75.3,66.9,69.6,65.6,61.9,85,73,55,29.34,29.26,5,0,5,0.00
2013-8-11,84.7,74.3,63.7,70.3,64.0,58.4,85,71,54,29.35,29.29,10,0,10,0.00
2013-8-12,85.1,74.1,64.2,70.5,65.0,58.6,84,74,59,29.32,29.11,6,0,6,0.00
2013-8-13,72.3,67.0,57.4,64.2,55.9,48.2,88,69,49,29.34,29.12,9,1,9,0.00
2013-8-14,77.5,62.4,51.6,53.5,49.6,45.3,81,65,43,29.44,29.33,9,0,9,0.00
2013-8-15,80.4,64.4,50.9,56.2,51.0,44.8,82,64,41,29.42,29.33,8,0,8,0.00
2013-8-16,80.1,68.5,59.2,60.4,56.2,51.8,82,66,48,29.41,29.35,6,0,6,0.00
2013-8-17,78.8,63.3,58.8,61.4,54.5,51.1,78,73,53,29.45,29.40,8,0,8,0.00
2013-9-13,68.5,60.0,52.9,50.7,46.3,43.4,78,62,44,29.35,29.26,10,1,10,0.00
2013-9-14,71.8,58.1,45.5,46.0,42.5,38.9,81,59,33,29.43,29.31,7,0,7,0.00
2013-9-15,75.0,60.4,48.9,55.8,48.4,40.8,83,66,41,29.35,29.22,10,0,10,0.00
2013-9-16,67.3,60.8,54.3,55.4,53.2,47.2,86,77,61,29.52,29.32,9,1,9,0.00
2013-9-17,73.9,61.0,49.1,55.0,49.8,43.6,83,68,49,29.57,29.38,10,1,10,0.00
2013-9-18,80.2,68.2,59.0,64.3,57.8,50.9,84,70,55,29.38,29.23,10,0,10,0.00
2013-9-19,69.8,68.7,66.9,64.3,63.8,63.2,87,84,82,29.27,29.23,6,0,6,0.00
2013-9-21,69.4,62.7,55.0,50.7,47.8,46.0,72,59,49,29.14,29.04,7,0,7,0.00
2013-9-22,72.3,58.4,48.9,50.5,46.8,43.6,85,67,46,29.26,29.14,10,0,10,0.00
2013-9-23,73.2,58.6,46.9,51.1,46.0,40.6,80,64,45,29.35,29.26,10,1,10,0.00
2013-9-24,73.8,59.8,47.3,52.4,47.1,41.1,81,64,46,29.31,29.15,10,1,11,0.00
2013-9-25,76.5,62.7,52.0,55.0,49.4,45.6,80,63,44,29.18,29.12,7,0,7,0.00
2013-9-26,77.0,63.7,51.4,57.2,51.3,45.8,85,66,46,29.31,29.17,8,1,8,0.00
2013-9-27,80.8,64.5,51.6,56.2,48.6,44.7,78,59,35,29.41,29.31,6,0,6,0.00
2013-9-28,79.5,66.2,52.7,59.0,53.1,45.7,78,64,46,29.38,29.23,8,1,8,0.00
2013-9-29,70.2,62.8,56.1,61.4,56.9,51.3,90,81,71,29.25,29.19,7,0,7,0.00
2013-9-30,73.6,62.4,54.9,60.5,55.3,51.3,91,79,56,29.25,29.14,7,0,7,0.00
2013-10-1,75.4,65.0,58.8,63.6,59.2,55.5,91,82,67,29.28,29.19,6,0,10,0.00
2013-10-2,76.3,67.4,59.9,68.9,62.7,56.0,93,85,73,29.32,29.23,6,0,6,0.00
2013-10-3,79.3,70.4,64.2,67.5,63.7,60.3,92,80,61,29.26,29.15,9,0,9,0.00
2013-10-4,81.5,72.8,66.7,70.1,65.8,62.7,88,79,64,29.26,29.19,12,0,12,0.00
2013-10-5,76.8,70.6,66.6,70.2,66.3,62.9,91,87,77,29.25,29.09,13,0,13,0.03
2013-10-6,66.4,60.0,48.6,63.1,54.5,39.4,92,82,62,29.11,28.94,9,0,9,0.00
2013-10-7,64.8,51.7,45.0,49.4,43.8,39.4,89,75,56,29.36,29.02,12,1,12,0.00
2013-10-8,71.4,57.0,46.0,54.2,46.8,41.5,87,70,51,29.49,29.36,5,0,5,0.00
2013-10-9,72.3,58.2,46.2,52.6,46.0,40.1,80,65,47,29.49,29.38,9,0,9,0.00
2013-10-10,71.1,58.9,47.1,53.3,46.7,41.3,82,65,46,29.42,29.30,7,0,7,0.00
2013-10-11,73.9,59.8,46.9,54.3,47.5,40.9,81,65,45,29.35,29.23,6,0,6,0.00
2013-10-12,75.9,63.3,50.7,58.9,52.3,44.8,81,69,49,29.34,29.23,8,0,8,0.00
2013-10-13,67.6,62.2,50.4,59.1,46.0,39.2,79,57,42,29.57,29.34,6,0,6,0.00
2013-10-14,65.5,53.9,42.4,50.7,42.5,36.0,82,66,49,29.60,29.41,11,1,11,0.00
2013-10-15,64.0,56.9,48.7,59.8,52.2,42.9,91,84,70,29.42,29.11,11,1,11,0.00
2013-10-16,62.4,54.0,46.8,59.8,46.3,40.5,91,75,63,29.20,29.10,10,1,10,0.00
2013-10-17,46.8,45.9,44.6,41.0,40.1,39.3,82,80,78,29.19,29.17,0,0,0,0.00
2013-10-19,51.6,47.0,41.5,40.5,36.7,34.1,88,68,54,29.16,29.08,9,1,9,0.00
2013-10-20,62.2,51.1,41.4,45.1,39.6,34.6,79,66,49,29.19,29.10,17,2,17,0.00
2013-10-21,54.0,48.6,38.5,44.9,40.3,28.0,82,73,64,29.23,29.12,12,1,12,0.00
2013-10-22,48.7,37.7,32.4,31.6,27.7,25.1,76,68,49,29.26,29.16,4,0,4,0.00
2013-10-24,43.2,39.0,34.0,32.8,28.7,24.8,77,66,57,29.50,29.34,10,0,10,0.00
2013-10-25,46.9,37.4,28.9,30.9,26.6,23.4,80,66,48,29.65,29.43,8,1,8,0.00
2013-10-26,54.1,43.2,36.1,38.8,31.1,25.7,70,62,49,29.43,29.10,15,2,15,0.00
2013-10-27,53.2,42.3,32.7,34.4,30.6,26.9,80,65,44,29.34,29.25,6,0,6,0.00
2013-10-28,57.4,44.2,33.1,38.2,31.8,25.8,78,63,44,29.54,29.30,5,0,5,0.00
2013-10-29,55.2,45.8,37.2,43.4,37.9,31.9,83,74,63,29.59,29.41,6,1,6,0.00
2013-10-30,61.9,54.4,48.6,59.9,50.9,42.3,93,88,78,29.41,29.15,8,0,8,0.00
2013-10-31,61.9,59.7,53.4,60.2,57.4,49.9,94,92,89,29.15,28.51,19,2,19,0.18
2013-11-1,53.2,48.5,44.2,49.9,43.0,39.9,89,82,69,28.98,28.61,14,3,14,0.00
2013-11-2,51.1,45.5,42.3,42.1,40.2,38.3,88,82,66,29.34,28.96,11,1,11,0.00
2013-11-3,51.6,43.3,35.4,42.9,37.1,31.9,88,79,63,29.55,29.33,8,1,8,0.00
2013-11-4,54.5,46.2,39.4,42.6,38.6,34.4,84,75,62,29.57,29.47,12,1,12,0.00
2013-11-5,57.0,50.6,44.4,47.8,43.7,38.7,87,77,68,29.58,29.34,10,1,10,0.00
2013-11-6,55.9,51.2,41.2,51.7,45.6,37.3,90,82,69,29.34,29.09,22,2,22,0.00
2013-11-7,46.0,39.6,32.2,37.3,30.9,27.3,86,72,49,29.50,29.32,17,2,17,0.00
2013-11-8,48.0,38.3,30.0,33.5,30.0,26.1,86,73,56,29.58,29.36,9,0,9,0.00
2013-11-9,59.2,49.4,41.4,41.7,36.0,29.2,70,60,49,29.37,29.18,18,4,18,0.00
2013-11-10,46.0,40.6,34.9,36.9,30.6,26.7,75,67,57,29.55,29.31,16,2,16,0.00
2013-11-11,50.2,40.5,30.0,37.8,32.6,25.8,87,74,59,29.59,29.30,14,2,14,0.00
2013-11-12,34.2,29.2,24.6,25.8,22.2,18.1,84,75,65,29.84,29.58,8,0,8,0.00
2013-11-13,37.6,28.7,20.5,22.0,19.0,15.3,81,68,51,29.83,29.53,11,1,11,0.00
2013-11-14,51.4,39.1,29.1,27.4,23.5,20.3,71,55,35,29.53,29.28,14,2,14,0.00
2013-11-15,52.0,44.1,39.6,32.4,28.6,24.3,72,55,47,29.32,29.24,11,1,11,0.00
2013-11-16,57.7,49.2,40.1,54.7,45.1,31.9,90,86,72,29.27,28.97,17,3,17,0.00
2013-11-17,63.0,58.9,47.1,59.1,55.7,40.5,92,89,64,29.01,28.53,30,5,30,0.00
2013-11-18,45.7,40.7,33.4,38.6,31.5,26.3,82,70,58,29.44,29.01,23,5,23,13.22
2013-11-19,44.2,34.6,28.6,32.8,27.1,23.5,82,74,63,29.58,29.43,8,1,8,0.00
2013-11-20,46.9,36.7,28.2,35.1,29.5,23.1,83,75,62,29.56,29.38,13,2,13,0.00
2013-11-21,47.7,44.7,41.9,45.5,40.4,35.1,92,85,72,29.48,29.39,12,1,12,0.00
2013-11-22,48.0,41.4,31.3,46.1,38.1,27.3,93,88,79,29.65,29.38,18,3,18,0.00
2013-11-23,31.3,26.4,20.8,27.3,19.9,13.2,86,76,62,29.82,29.60,23,4,23,0.00
2013-11-24,20.8,18.6,16.9,13.2,11.7,10.5,76,74,72,29.84,29.81,5,1,5,0.00
2013-12-5,55.8,35.5,25.7,52.6,30.0,19.2,92,80,74,29.42,28.92,16,3,16,0.00
2013-12-6,27.5,25.5,21.0,21.0,19.1,15.2,78,76,75,29.65,29.41,5,2,5,0.00
2013-12-7,26.4,19.9,14.4,16.2,12.3,9.1,79,72,61,29.84,29.67,7,1,7,0.00
2013-12-8,28.0,23.8,19.2,25.1,18.0,12.3,89,78,73,29.75,29.21,9,3,9,0.00
2013-12-9,28.6,23.6,17.6,25.7,17.9,9.8,90,79,71,29.44,29.18,11,5,11,0.00
2013-12-10,26.4,18.4,9.3,12.4,8.7,2.7,74,66,52,29.54,29.33,10,4,10,0.00
2013-12-11,25.9,18.7,9.0,18.5,11.7,2.1,78,74,67,29.74,29.52,7,1,7,0.00
2013-12-12,25.3,14.4,3.4,8.0,2.3,-3.7,75,59,41,29.77,29.49,12,2,12,13.22
2013-12-13,37.9,25.8,16.9,27.2,16.0,5.5,87,67,54,29.50,29.34,10,1,10,0.00
2013-12-14,36.0,31.3,23.7,31.1,28.2,20.1,90,88,78,29.35,29.00,8,1,8,0.00
2013-12-15,26.1,17.2,13.6,23.0,12.0,8.0,88,80,75,29.33,29.14,21,4,21,13.22
2013-12-16,28.6,20.9,14.5,21.8,15.6,10.0,89,80,68,29.35,29.21,9,1,9,0.00
2013-12-17,27.1,22.5,18.1,23.2,19.0,15.1,90,87,78,29.33,29.20,12,2,12,0.00
2013-12-18,33.3,24.0,12.9,22.7,16.7,7.9,85,74,64,29.45,29.17,22,3,22,0.00
2013-12-19,44.4,39.6,33.3,36.3,32.7,22.7,87,76,65,29.22,29.08,15,2,15,0.00
2013-12-20,55.2,47.8,39.6,53.2,45.4,36.3,94,92,85,29.09,28.96,14,2,14,0.00
2013-12-21,47.3,37.4,34.7,43.3,34.9,32.0,92,90,86,29.06,28.70,14,2,14,0.00
2013-12-22,37.6,34.7,30.0,35.3,32.1,26.9,93,90,88,29.30,28.68,17,3,17,0.00
2013-12-23,30.0,24.0,10.6,26.9,19.0,3.8,88,81,69,29.65,29.30,23,4,23,0.00
2013-12-24,22.6,11.8,3.6,16.3,5.5,-2.1,81,76,72,29.79,29.64,16,2,16,0.00
2013-12-25,28.0,23.6,17.4,23.5,17.2,11.6,83,77,73,29.66,29.35,17,2,17,0.00
2013-12-26,34.5,28.4,18.7,25.8,21.4,12.3,89,75,62,29.56,29.34,20,4,20,0.00
2013-12-27,44.1,35.2,28.8,34.4,28.2,23.2,82,76,67,29.57,29.41,13,2,13,0.00
2013-12-28,49.8,39.5,33.6,38.5,31.9,28.5,83,74,64,29.42,29.16,10,1,13,0.00
2013-12-29,41.7,33.9,25.0,33.0,27.9,21.4,88,79,71,29.30,29.03,17,3,17,0.00
2013-12-30,25.0,19.6,16.0,21.6,13.2,9.9,87,76,67,29.51,29.29,9,1,9,0.00
2013-12-31,24.4,19.1,12.9,16.6,12.8,7.3,81,76,69,29.59,29.38,13,2,13,0.00
2014-1-1,30.9,24.2,19.0,25.5,18.5,13.7,83,79,75,29.49,29.29,11,3,11,0.00
2014-1-2,19.6,15.2,4.3,13.9,9.2,-3.4,83,77,65,29.57,29.18,13,3,13,0.00